createdAt,value
2023-03-05T07:41:30.413Z,457.00
2023-03-05T07:42:21.838Z,131.00
2023-03-05T07:43:22.729Z,89.00
2023-03-05T07:44:22.727Z,337.00
2023-03-05T07:45:22.703Z,307.00
2023-03-05T07:46:22.821Z,292.00
2023-03-05T07:47:22.848Z,285.00
2023-03-05T07:48:22.693Z,284.00
2023-03-05T07:49:22.677Z,276.00
2023-03-05T07:50:22.679Z,270.00
2023-03-05T07:51:22.647Z,261.00
2023-03-05T07:52:22.654Z,255.00
2023-03-05T07:53:22.775Z,258.00
2023-03-05T07:54:22.644Z,255.00
2023-03-05T07:55:22.608Z,244.00
2023-03-05T07:56:22.631Z,235.00
2023-03-05T07:57:22.592Z,229.00
2023-03-05T07:58:22.582Z,232.00
2023-03-05T07:59:22.729Z,233.00
2023-03-05T08:00:22.562Z,227.00
2023-03-05T08:01:22.551Z,218.00
2023-03-05T08:02:22.565Z,211.00
2023-03-05T08:03:22.544Z,213.00
2023-03-05T08:04:22.574Z,210.00
2023-03-05T08:05:22.644Z,211.00
2023-03-05T08:06:22.529Z,206.00
2023-03-05T08:07:22.501Z,202.00
2023-03-05T08:08:22.500Z,195.00
2023-03-05T08:09:22.471Z,194.00
2023-03-05T08:10:22.486Z,197.00
2023-03-05T08:11:22.623Z,196.00
2023-03-05T08:12:22.432Z,189.00
2023-03-05T08:13:22.444Z,187.00
2023-03-05T08:14:22.483Z,189.00
2023-03-05T08:15:22.430Z,187.00
2023-03-05T08:16:22.454Z,188.00
2023-03-05T08:17:22.518Z,188.00
2023-03-05T08:18:22.373Z,185.00
2023-03-05T08:19:22.410Z,175.00
2023-03-05T08:20:22.351Z,179.00
2023-03-05T08:21:22.339Z,181.00
2023-03-05T08:22:22.346Z,184.00
2023-03-05T08:23:22.489Z,183.00
2023-03-05T08:24:22.311Z,186.00
2023-03-05T08:25:22.302Z,178.00
2023-03-05T08:26:22.293Z,177.00
2023-03-05T08:27:22.271Z,180.00
2023-03-05T08:29:14.092Z,174.00
2023-03-05T08:30:14.812Z,179.00
2023-03-05T08:31:14.890Z,172.00
2023-03-05T08:32:14.805Z,171.00
2023-03-05T08:33:14.881Z,175.00
2023-03-05T08:34:14.810Z,172.00
2023-03-05T08:35:14.783Z,174.00
2023-03-05T08:36:14.764Z,162.00
2023-03-05T08:37:14.753Z,155.00
2023-03-05T08:38:14.744Z,154.00
2023-03-05T08:39:14.770Z,161.00
2023-03-05T08:40:14.914Z,160.00
2023-03-05T08:41:14.714Z,161.00
2023-03-05T08:42:14.708Z,153.00
2023-03-05T08:43:14.714Z,148.00
2023-03-05T08:44:14.670Z,155.00
2023-03-05T08:45:14.665Z,155.00
2023-03-05T08:46:14.852Z,158.00
2023-03-05T08:47:14.644Z,158.00
2023-03-05T08:48:14.629Z,155.00
2023-03-05T08:49:14.629Z,150.00
2023-03-05T08:50:14.623Z,155.00
2023-03-05T08:51:14.618Z,155.00
2023-03-05T08:52:14.744Z,162.00
2023-03-05T08:53:14.623Z,161.00
2023-03-05T08:54:14.584Z,162.00
2023-03-05T08:55:14.587Z,162.00
2023-03-05T08:56:14.562Z,162.00
2023-03-05T08:57:14.560Z,155.00
2023-03-05T08:58:14.671Z,168.00
2023-03-05T08:59:14.542Z,125.00
2023-03-05T09:00:14.513Z,156.00
2023-03-05T09:01:14.596Z,135.00
2023-03-05T09:02:14.503Z,139.00
2023-03-05T09:03:14.620Z,117.00
2023-03-05T09:04:14.609Z,159.00
2023-03-05T09:05:14.472Z,137.00
2023-03-05T09:06:14.876Z,123.00
2023-03-05T09:07:14.462Z,127.00
2023-03-05T09:08:14.438Z,140.00
2023-03-05T09:09:14.599Z,125.00
2023-03-05T09:10:14.588Z,123.00
2023-03-05T09:11:14.402Z,124.00
2023-03-05T09:12:14.779Z,102.00
2023-03-05T09:13:14.760Z,147.00
2023-03-05T09:14:14.360Z,122.00
2023-03-05T09:15:14.369Z,120.00
2023-03-05T09:16:14.528Z,120.00
2023-03-05T09:17:14.369Z,119.00
2023-03-05T09:18:14.320Z,122.00
2023-03-05T09:19:14.313Z,119.00
2023-03-05T09:20:14.305Z,118.00
2023-03-05T09:21:14.299Z,112.00
2023-03-05T09:22:14.430Z,138.00
2023-03-05T09:23:14.280Z,138.00
2023-03-05T09:24:14.267Z,137.00
2023-03-05T09:25:14.274Z,137.00
2023-03-05T09:26:14.246Z,145.00
2023-03-05T09:27:14.245Z,151.00
2023-03-05T09:28:15.496Z,133.00
2023-03-05T09:29:21.927Z,82.00
2023-03-05T09:30:14.197Z,80.00
2023-03-05T09:31:14.238Z,81.00
2023-03-05T09:32:14.218Z,81.00
2023-03-05T09:33:14.282Z,79.00
2023-03-05T09:34:14.420Z,78.00
2023-03-05T09:35:15.943Z,77.00
2023-03-05T09:36:14.139Z,77.00
2023-03-05T09:37:14.122Z,78.00
2023-03-05T09:38:14.120Z,79.00
2023-03-05T09:39:14.103Z,78.00
2023-03-05T09:40:14.252Z,78.00
2023-03-05T09:41:14.093Z,76.00
2023-03-05T09:42:14.081Z,76.00
2023-03-05T09:43:14.077Z,75.00
2023-03-05T09:44:14.048Z,76.00
2023-03-05T09:45:14.093Z,75.00
2023-03-05T09:46:14.226Z,73.00
2023-03-05T09:47:14.740Z,70.00
2023-03-05T09:48:14.003Z,65.00
2023-03-05T09:49:14.011Z,68.00
2023-03-05T09:50:13.988Z,72.00
2023-03-05T09:51:13.994Z,70.00
2023-03-05T09:52:14.147Z,68.00
2023-03-05T09:53:13.974Z,74.00
2023-03-05T09:54:13.959Z,76.00
2023-03-05T09:55:13.939Z,75.00
2023-03-05T09:56:13.934Z,72.00
2023-03-05T09:57:13.964Z,70.00
2023-03-05T09:58:14.058Z,72.00
2023-03-05T09:59:16.493Z,73.00
2023-03-05T10:00:13.880Z,75.00
2023-03-05T10:01:13.878Z,75.00
2023-03-05T10:02:13.923Z,77.00
2023-03-05T10:03:13.946Z,76.00
2023-03-05T10:04:14.117Z,74.00
2023-03-05T10:05:13.834Z,78.00
2023-03-05T10:06:13.849Z,80.00
2023-03-05T10:07:15.853Z,84.00
2023-03-05T10:08:13.812Z,86.00
2023-03-05T10:09:13.810Z,78.00
2023-03-05T10:10:13.942Z,81.00
2023-03-05T10:11:13.778Z,81.00
2023-03-05T10:12:14.749Z,85.00
2023-03-05T10:13:13.759Z,84.00
2023-03-05T10:14:13.761Z,89.00
2023-03-05T10:15:13.755Z,79.00
2023-03-05T10:16:13.957Z,119.00
2023-03-05T10:17:13.716Z,47.00
2023-03-05T10:18:13.748Z,49.00
2023-03-05T10:19:13.710Z,49.00
2023-03-05T10:20:13.682Z,49.00
2023-03-05T10:21:13.663Z,49.00
2023-03-05T10:22:13.909Z,47.00
2023-03-05T10:23:13.647Z,47.00
2023-03-05T10:24:13.639Z,49.00
2023-03-05T10:25:13.658Z,48.00
2023-03-05T10:26:13.626Z,49.00
2023-03-05T10:27:13.634Z,48.00
2023-03-05T10:28:13.761Z,50.00
2023-03-05T10:29:13.583Z,48.00
2023-03-05T10:30:13.615Z,48.00
2023-03-05T10:31:13.609Z,48.00
2023-03-05T10:32:13.718Z,48.00
2023-03-05T10:33:13.538Z,48.00
2023-03-05T10:34:13.861Z,48.00
2023-03-05T10:35:13.542Z,48.00
2023-03-05T10:36:13.559Z,48.00
2023-03-05T10:37:13.506Z,48.00
2023-03-05T10:38:13.500Z,48.00
2023-03-05T10:39:13.483Z,48.00
2023-03-05T10:40:13.623Z,48.00
2023-03-05T10:41:13.463Z,48.00
2023-03-05T10:42:13.447Z,48.00
2023-03-05T10:43:13.464Z,48.00
2023-03-05T10:44:13.433Z,47.00
2023-03-05T10:45:14.272Z,48.00
2023-03-05T10:46:13.602Z,48.00
2023-03-05T10:47:13.400Z,48.00
2023-03-05T10:48:13.392Z,48.00
2023-03-05T10:49:13.373Z,48.00
2023-03-05T10:50:13.360Z,48.00
2023-03-05T10:51:13.459Z,48.00
2023-03-05T10:52:13.522Z,47.00
2023-03-05T10:53:13.341Z,45.00
2023-03-05T10:54:13.376Z,45.00
2023-03-05T10:55:13.390Z,46.00
2023-03-05T10:56:13.306Z,47.00
2023-03-05T10:57:13.324Z,25.00
2023-03-05T10:58:13.470Z,88.00
2023-03-05T10:59:13.284Z,121.00
2023-03-05T11:00:13.292Z,137.00
2023-03-05T11:01:13.291Z,146.00
2023-03-05T11:02:13.272Z,147.00
2023-03-05T11:03:13.231Z,142.00
2023-03-05T11:04:13.264Z,140.00
2023-03-05T11:05:13.213Z,136.00
2023-03-05T11:06:13.193Z,138.00
2023-03-05T11:07:13.187Z,142.00
2023-03-05T11:08:13.177Z,142.00
2023-03-05T11:09:13.171Z,140.00
2023-03-05T11:10:13.286Z,143.00
2023-03-05T11:11:13.150Z,138.00
2023-03-05T11:12:13.139Z,137.00
2023-03-05T11:13:13.153Z,155.00
2023-03-05T11:14:13.145Z,120.00
2023-03-05T11:15:13.120Z,136.00
2023-03-05T11:16:13.269Z,43.00
2023-03-05T11:17:13.085Z,159.00
2023-03-05T11:18:13.073Z,124.00
2023-03-05T11:19:13.266Z,122.00
2023-03-05T11:20:13.459Z,127.00
2023-03-05T11:21:14.090Z,123.00
2023-03-05T11:22:13.154Z,121.00
2023-03-05T11:23:13.029Z,118.00
2023-03-05T11:24:13.000Z,120.00
2023-03-05T11:25:13.031Z,116.00
2023-03-05T11:26:12.988Z,118.00
2023-03-05T11:27:12.975Z,121.00
2023-03-05T11:28:15.258Z,121.00
2023-03-05T11:29:20.444Z,168.00
2023-03-05T11:30:12.949Z,27.00
2023-03-05T11:31:12.987Z,79.00
2023-03-05T11:32:12.964Z,62.00
2023-03-05T11:33:12.936Z,88.00
2023-03-05T11:34:13.066Z,55.00
2023-03-05T11:35:12.943Z,97.00
2023-03-05T11:36:12.891Z,93.00
2023-03-05T11:37:12.882Z,86.00
2023-03-05T11:38:12.859Z,117.00
2023-03-05T11:39:12.869Z,113.00
2023-03-05T11:40:13.138Z,112.00
2023-03-05T11:41:12.844Z,112.00
2023-03-05T11:42:12.831Z,113.00
2023-03-05T11:43:12.834Z,111.00
2023-03-05T11:44:13.669Z,114.00
2023-03-05T11:45:12.818Z,114.00
2023-03-05T11:46:12.941Z,115.00
2023-03-05T11:47:12.772Z,115.00
2023-03-05T11:48:12.770Z,114.00
2023-03-05T11:49:12.769Z,116.00
2023-03-05T11:50:12.770Z,116.00
2023-03-05T11:51:12.742Z,116.00
2023-03-05T11:52:12.858Z,111.00
2023-03-05T11:53:12.769Z,108.00
2023-03-05T11:54:12.725Z,113.00
2023-03-05T11:55:12.700Z,110.00
2023-03-05T11:56:12.710Z,110.00
2023-03-05T11:57:12.688Z,110.00
2023-03-05T11:58:12.866Z,109.00
2023-03-05T11:59:12.657Z,109.00
2023-03-05T12:00:12.683Z,112.00
2023-03-05T12:01:12.631Z,108.00
2023-03-05T12:02:12.616Z,113.00
2023-03-05T12:03:12.661Z,112.00
2023-03-05T12:04:12.709Z,114.00
2023-03-05T12:05:12.588Z,114.00
2023-03-05T12:06:12.581Z,108.00
2023-03-05T12:07:12.585Z,111.00
2023-03-05T12:08:12.582Z,109.00
2023-03-05T12:09:12.572Z,107.00
2023-03-05T12:10:12.708Z,105.00
2023-03-05T12:11:12.575Z,103.00
2023-03-05T12:12:12.527Z,106.00
2023-03-05T12:13:12.510Z,109.00
2023-03-05T12:14:12.530Z,110.00
2023-03-05T12:15:12.514Z,112.00
2023-03-05T12:16:12.686Z,112.00
2023-03-05T12:17:12.469Z,107.00
2023-03-05T12:18:12.452Z,108.00
2023-03-05T12:19:12.453Z,106.00
2023-03-05T12:20:12.538Z,107.00
2023-03-05T12:21:12.422Z,106.00
2023-03-05T12:22:12.585Z,106.00
2023-03-05T12:23:12.404Z,104.00
2023-03-05T12:24:12.398Z,107.00
2023-03-05T12:25:12.385Z,107.00
2023-03-05T12:26:12.393Z,106.00
2023-03-05T12:27:12.361Z,105.00
2023-03-05T12:28:12.545Z,106.00
2023-03-05T12:29:19.475Z,107.00
2023-03-05T12:30:12.326Z,105.00
2023-03-05T12:31:12.340Z,109.00
2023-03-05T12:32:12.377Z,110.00
2023-03-05T12:33:12.307Z,104.00
2023-03-05T12:34:12.426Z,100.00
2023-03-05T12:35:12.273Z,102.00
2023-03-05T12:36:12.268Z,103.00
2023-03-05T12:37:12.260Z,104.00
2023-03-05T12:38:26.193Z,103.00
2023-03-05T12:39:12.240Z,106.00
2023-03-05T12:40:12.394Z,103.00
2023-03-05T12:41:12.221Z,104.00
2023-03-05T12:42:12.201Z,105.00
2023-03-05T12:43:12.188Z,103.00
2023-03-05T12:44:12.191Z,99.00
2023-03-05T12:45:12.199Z,101.00
2023-03-05T12:46:12.435Z,103.00
2023-03-05T12:47:12.178Z,101.00
2023-03-05T12:48:12.317Z,99.00
2023-03-05T12:49:12.138Z,98.00
2023-03-05T12:50:12.150Z,96.00
2023-03-05T12:51:12.126Z,95.00
2023-03-05T12:52:12.278Z,99.00
2023-03-05T12:53:12.108Z,96.00
2023-03-05T12:54:12.088Z,95.00
2023-03-05T12:55:12.068Z,89.00
2023-03-05T12:56:12.857Z,92.00
2023-03-05T12:57:12.050Z,95.00
2023-03-05T12:58:12.246Z,96.00
2023-03-05T12:59:12.026Z,95.00
2023-03-05T13:00:12.031Z,97.00
2023-03-05T13:01:12.152Z,90.00
2023-03-05T13:02:12.000Z,90.00
2023-03-05T13:03:11.980Z,90.00
2023-03-05T13:04:12.070Z,86.00
2023-03-05T13:05:11.957Z,87.00
2023-03-05T13:06:12.007Z,88.00
2023-03-05T13:07:11.940Z,88.00
2023-03-05T13:08:14.771Z,87.00
2023-03-05T13:09:12.023Z,89.00
2023-03-05T13:10:12.086Z,86.00
2023-03-05T13:11:11.897Z,84.00
2023-03-05T13:12:11.936Z,85.00
2023-03-05T13:13:11.876Z,89.00
2023-03-05T13:14:11.895Z,68.00
2023-03-05T13:15:11.913Z,69.00
2023-03-05T13:16:12.057Z,72.00
2023-03-05T13:17:11.829Z,66.00
2023-03-05T13:18:11.845Z,82.00
2023-03-05T13:19:11.811Z,84.00
2023-03-05T13:20:11.833Z,67.00
2023-03-05T13:21:11.803Z,77.00
2023-03-05T13:22:11.955Z,72.00
2023-03-05T13:23:11.766Z,68.00
2023-03-05T13:24:13.740Z,64.00
2023-03-05T13:25:11.757Z,70.00
2023-03-05T13:26:11.738Z,75.00
2023-03-05T13:27:11.727Z,66.00
2023-03-05T13:28:11.879Z,73.00
2023-03-05T13:29:19.071Z,61.00
2023-03-05T13:30:11.811Z,75.00
2023-03-05T13:31:11.697Z,68.00
2023-03-05T13:32:11.726Z,71.00
2023-03-05T13:33:11.701Z,53.00
2023-03-05T13:34:11.820Z,73.00
2023-03-05T13:35:11.654Z,75.00
2023-03-05T13:36:12.098Z,80.00
2023-03-05T13:37:11.622Z,52.00
2023-03-05T13:38:11.984Z,70.00
2023-03-05T13:39:11.659Z,54.00
2023-03-05T13:40:11.818Z,54.00
2023-03-05T13:41:11.613Z,73.00
2023-03-05T13:42:11.605Z,70.00
2023-03-05T13:43:11.689Z,61.00
2023-03-05T13:44:11.557Z,41.00
2023-03-05T13:45:11.535Z,74.00
2023-03-05T13:46:11.929Z,67.00
2023-03-05T13:47:11.568Z,69.00
2023-03-05T13:48:11.516Z,72.00
2023-03-05T13:49:11.521Z,78.00
2023-03-05T13:50:11.479Z,76.00
2023-03-05T13:51:11.476Z,74.00
2023-03-05T13:52:11.664Z,87.00
2023-03-05T13:53:11.456Z,67.00
2023-03-05T13:54:11.450Z,70.00
2023-03-05T13:55:11.472Z,72.00
2023-03-05T13:56:11.425Z,73.00
2023-03-05T13:57:11.404Z,73.00
2023-03-05T13:58:11.539Z,71.00
2023-03-05T13:59:11.391Z,66.00
2023-03-05T14:00:11.383Z,67.00
2023-03-05T14:01:11.426Z,67.00
2023-03-05T14:02:11.364Z,67.00
2023-03-05T14:03:11.411Z,69.00
2023-03-05T14:04:11.496Z,68.00
2023-03-05T14:05:11.398Z,70.00
2023-03-05T14:06:11.323Z,71.00
2023-03-05T14:07:11.344Z,67.00
2023-03-05T14:08:11.296Z,69.00
2023-03-05T14:09:11.356Z,70.00
2023-03-05T14:10:11.414Z,69.00
2023-03-05T14:11:11.291Z,72.00
2023-03-05T14:12:11.292Z,56.00
2023-03-05T14:13:11.242Z,68.00
2023-03-05T14:14:11.249Z,68.00
2023-03-05T14:15:11.228Z,72.00
2023-03-05T14:16:11.411Z,64.00
2023-03-05T14:17:11.220Z,68.00
2023-03-05T14:18:11.236Z,71.00
2023-03-05T14:19:11.231Z,66.00
2023-03-05T14:20:11.186Z,64.00
2023-03-05T14:21:11.192Z,66.00
2023-03-05T14:22:11.318Z,68.00
2023-03-05T14:23:13.482Z,69.00
2023-03-05T14:24:11.226Z,62.00
2023-03-05T14:25:11.152Z,65.00
2023-03-05T14:26:11.116Z,67.00
2023-03-05T14:27:11.141Z,64.00
2023-03-05T14:28:11.282Z,65.00
2023-03-05T14:29:18.514Z,62.00
2023-03-05T14:30:11.071Z,62.00
2023-03-05T14:31:11.071Z,61.00
2023-03-05T14:32:11.075Z,63.00
2023-03-05T14:33:11.077Z,62.00
2023-03-05T14:34:11.187Z,58.00
2023-03-05T14:35:11.043Z,59.00
2023-03-05T14:36:11.049Z,59.00
2023-03-05T14:37:10.996Z,59.00
2023-03-05T14:38:10.983Z,57.00
2023-03-05T14:39:10.977Z,58.00
2023-03-05T14:40:11.061Z,60.00
2023-03-05T14:41:10.953Z,60.00
2023-03-05T14:42:10.969Z,59.00
2023-03-05T14:43:10.936Z,57.00
2023-03-05T14:44:10.929Z,59.00
2023-03-05T14:45:10.914Z,58.00
2023-03-05T14:46:12.406Z,60.00
2023-03-05T14:47:10.892Z,60.00
2023-03-05T14:48:10.895Z,58.00
2023-03-05T14:49:10.877Z,59.00
2023-03-05T14:50:10.940Z,58.00
2023-03-05T14:51:10.867Z,58.00
2023-03-05T14:52:11.310Z,57.00
2023-03-05T14:53:10.843Z,56.00
2023-03-05T14:54:10.825Z,56.00
2023-03-05T14:55:10.818Z,54.00
2023-03-05T14:56:10.805Z,55.00
2023-03-05T14:57:10.795Z,53.00
2023-03-05T14:58:10.931Z,50.00
2023-03-05T14:59:10.801Z,57.00
2023-03-05T15:00:10.773Z,57.00
2023-03-05T15:01:10.791Z,57.00
2023-03-05T15:02:10.791Z,56.00
2023-03-05T15:03:10.730Z,56.00
2023-03-05T15:04:10.859Z,56.00
2023-03-05T15:05:10.722Z,54.00
2023-03-05T15:06:10.701Z,55.00
2023-03-05T15:07:10.681Z,54.00
2023-03-05T15:08:10.725Z,55.00
2023-03-05T15:09:10.665Z,54.00
2023-03-05T15:10:10.708Z,51.00
2023-03-05T15:11:11.558Z,51.00
2023-03-05T15:12:10.637Z,51.00
2023-03-05T15:13:10.641Z,50.00
2023-03-05T15:14:10.668Z,51.00
2023-03-05T15:15:10.608Z,49.00
2023-03-05T15:16:10.772Z,40.00
2023-03-05T15:17:10.592Z,42.00
2023-03-05T15:18:10.571Z,46.00
2023-03-05T15:19:10.557Z,49.00
2023-03-05T15:20:10.567Z,48.00
2023-03-05T15:21:10.539Z,50.00
2023-03-05T15:22:10.723Z,52.00
2023-03-05T15:23:10.511Z,51.00
2023-03-05T15:24:11.488Z,50.00
2023-03-05T15:25:10.494Z,48.00
2023-03-05T15:26:10.596Z,46.00
2023-03-05T15:27:10.496Z,48.00
2023-03-05T15:28:10.629Z,45.00
2023-03-05T15:29:18.058Z,47.00
2023-03-05T15:30:10.446Z,44.00
2023-03-05T15:31:10.504Z,45.00
2023-03-05T15:32:10.472Z,44.00
2023-03-05T15:33:10.430Z,42.00
2023-03-05T15:34:10.570Z,42.00
2023-03-05T15:35:10.417Z,42.00
2023-03-05T15:36:10.431Z,41.00
2023-03-05T15:37:10.364Z,42.00
2023-03-05T15:38:10.377Z,41.00
2023-03-05T15:39:10.352Z,41.00
2023-03-05T15:40:10.506Z,41.00
2023-03-05T15:41:10.349Z,40.00
2023-03-05T15:42:10.352Z,40.00
2023-03-05T15:43:10.354Z,40.00
2023-03-05T15:44:10.339Z,40.00
2023-03-05T15:45:10.294Z,40.00
2023-03-05T15:46:10.465Z,40.00
2023-03-05T15:47:10.274Z,37.00
2023-03-05T15:48:10.347Z,38.00
2023-03-05T15:49:10.246Z,37.00
2023-03-05T15:50:10.261Z,38.00
2023-03-05T15:51:10.228Z,36.00
2023-03-05T15:52:10.414Z,35.00
2023-03-05T15:53:10.210Z,35.00
2023-03-05T15:54:10.196Z,35.00
2023-03-05T15:55:10.190Z,35.00
2023-03-05T15:56:10.187Z,34.00
2023-03-05T15:57:10.207Z,34.00
2023-03-05T15:58:10.466Z,33.00
2023-03-05T15:59:10.178Z,33.00
2023-03-05T16:00:10.184Z,31.00
2023-03-05T16:01:10.130Z,29.00
2023-03-05T16:02:10.140Z,29.00
2023-03-05T16:03:10.139Z,30.00
2023-03-05T16:04:10.258Z,31.00
2023-03-05T16:05:10.090Z,30.00
2023-03-05T16:06:10.097Z,29.00
2023-03-05T16:07:10.066Z,28.00
2023-03-05T16:08:10.057Z,28.00
2023-03-05T16:09:10.082Z,28.00
2023-03-05T16:10:10.318Z,26.00
2023-03-05T16:11:10.025Z,26.00
2023-03-05T16:12:10.030Z,26.00
2023-03-05T16:13:10.036Z,25.00
2023-03-05T16:14:10.031Z,25.00
2023-03-05T16:15:10.001Z,24.00
2023-03-05T16:16:10.177Z,23.00
2023-03-05T16:17:09.963Z,24.00
2023-03-05T16:18:09.962Z,23.00
2023-03-05T16:19:09.946Z,24.00
2023-03-05T16:20:09.952Z,22.00
2023-03-05T16:21:09.934Z,21.00
2023-03-05T16:22:10.066Z,20.00
2023-03-05T16:23:09.904Z,20.00
2023-03-05T16:24:09.897Z,19.00
2023-03-05T16:25:09.877Z,18.00
2023-03-05T16:26:09.869Z,18.00
2023-03-05T16:27:09.876Z,18.00
2023-03-05T16:28:10.009Z,17.00
2023-03-05T16:29:17.085Z,17.00
2023-03-05T16:30:09.819Z,15.00
2023-03-05T16:31:09.834Z,15.00
2023-03-05T16:32:09.868Z,15.00
2023-03-05T16:33:09.804Z,11.00
2023-03-05T16:34:09.943Z,9.00
2023-03-05T16:35:09.790Z,9.00
2023-03-05T16:36:09.764Z,11.00
2023-03-05T16:37:09.767Z,11.00
2023-03-05T16:38:09.761Z,10.00
2023-03-05T16:39:09.736Z,6.00
2023-03-05T16:40:09.910Z,9.00
2023-03-05T16:41:09.729Z,6.00
2023-03-05T16:42:09.701Z,5.00
2023-03-05T16:43:09.706Z,7.00
2023-03-05T16:44:09.691Z,7.00
2023-03-05T16:45:09.676Z,7.00
2023-03-05T16:46:09.751Z,4.00
2023-03-05T16:47:09.676Z,4.00
2023-03-05T16:48:09.634Z,3.00
2023-03-05T16:49:09.652Z,3.00
2023-03-05T16:50:09.647Z,3.00
2023-03-05T16:51:09.626Z,1.00
2023-03-05T16:52:18.620Z,2.00
2023-03-05T16:53:09.591Z,2.00
2023-03-05T16:54:10.200Z,2.00
2023-03-05T16:55:09.636Z,2.00
2023-03-05T16:56:09.652Z,0.00
2023-03-05T16:57:09.631Z,1.00
2023-03-05T16:58:09.800Z,2.00
2023-03-05T16:59:09.541Z,1.00
2023-03-05T17:00:09.526Z,1.00
2023-03-05T17:01:09.549Z,1.00
2023-03-05T17:02:09.515Z,1.00
2023-03-05T17:03:09.491Z,1.00
2023-03-05T17:04:09.739Z,0.00
2023-03-05T17:05:09.530Z,0.00
2023-03-05T17:06:09.518Z,0.00
2023-03-05T17:07:09.503Z,0.00
2023-03-05T17:08:09.490Z,0.00
2023-03-05T17:09:09.475Z,0.00
2023-03-05T17:10:09.634Z,0.00
2023-03-05T17:11:09.401Z,1.00
2023-03-05T17:12:09.443Z,0.00
2023-03-05T17:13:09.433Z,0.00
2023-03-05T17:14:09.424Z,0.00
2023-03-05T17:15:09.424Z,0.00
2023-03-05T17:16:09.656Z,0.00
2023-03-05T17:17:09.406Z,0.00
2023-03-05T17:18:09.375Z,0.00
2023-03-05T17:19:09.382Z,0.00
2023-03-05T17:20:09.391Z,0.00
2023-03-05T17:21:09.359Z,0.00
2023-03-05T17:22:09.509Z,0.00
2023-03-05T17:23:09.358Z,0.00
2023-03-05T17:24:09.322Z,0.00
2023-03-05T17:25:09.311Z,0.00
2023-03-05T17:26:09.298Z,0.00
2023-03-05T17:27:09.250Z,1.00
2023-03-05T17:28:09.249Z,1.00
2023-03-05T17:29:16.614Z,1.00
2023-03-05T17:30:09.217Z,1.00
2023-03-05T17:31:09.202Z,1.00
2023-03-05T17:32:09.211Z,1.00
2023-03-05T17:33:09.200Z,1.00
2023-03-05T17:34:09.310Z,1.00
2023-03-05T17:35:09.193Z,1.00
2023-03-05T17:36:09.134Z,1.00
2023-03-05T17:37:09.129Z,1.00
2023-03-05T17:38:09.169Z,1.00
2023-03-05T17:39:09.113Z,1.00
2023-03-05T17:40:09.265Z,1.00
2023-03-05T17:41:09.117Z,1.00
2023-03-05T17:42:09.357Z,2.00
2023-03-05T17:43:09.074Z,1.00
2023-03-05T17:44:09.157Z,0.00
2023-03-05T17:45:09.128Z,0.00
2023-03-05T17:46:09.324Z,0.00
2023-03-05T17:47:09.049Z,1.00
2023-03-05T17:48:09.015Z,1.00
2023-03-05T17:49:09.025Z,1.00
2023-03-05T17:50:08.993Z,1.00
2023-03-05T17:51:08.985Z,2.00
2023-03-05T17:52:09.133Z,5.00
2023-03-05T17:53:08.973Z,5.00
2023-03-05T17:54:08.958Z,5.00
2023-03-05T17:55:08.961Z,6.00
2023-03-05T17:56:08.948Z,6.00
2023-03-05T17:57:08.929Z,6.00
2023-03-05T17:58:09.053Z,6.00
2023-03-05T17:59:08.915Z,6.00
2023-03-05T18:00:08.901Z,6.00
2023-03-05T18:01:08.921Z,6.00
2023-03-05T18:02:08.877Z,6.00
2023-03-05T18:03:08.881Z,6.00
2023-03-05T18:04:09.149Z,6.00
2023-03-05T18:05:08.865Z,6.00
2023-03-05T18:06:08.830Z,6.00
2023-03-05T18:07:08.839Z,6.00
2023-03-05T18:08:08.811Z,6.00
2023-03-05T18:09:08.822Z,6.00
2023-03-05T18:10:08.959Z,6.00
2023-03-05T18:11:08.786Z,6.00
2023-03-05T18:12:08.766Z,6.00
2023-03-05T18:13:08.782Z,6.00
2023-03-05T18:14:08.768Z,6.00
2023-03-05T18:15:08.748Z,6.00
2023-03-05T18:16:08.910Z,6.00
2023-03-05T18:17:08.722Z,6.00
2023-03-05T18:18:08.705Z,6.00
2023-03-05T18:19:08.706Z,6.00
2023-03-05T18:20:08.700Z,6.00
2023-03-05T18:21:08.691Z,6.00
2023-03-05T18:22:08.855Z,6.00
2023-03-05T18:23:08.668Z,6.00
2023-03-05T18:24:08.703Z,6.00
2023-03-05T18:25:08.650Z,6.00
2023-03-05T18:26:08.627Z,6.00
2023-03-05T18:27:08.637Z,6.00
2023-03-05T18:28:08.733Z,6.00
2023-03-05T18:29:18.579Z,6.00
2023-03-05T18:30:08.574Z,6.00
2023-03-05T18:31:08.704Z,6.00
2023-03-05T18:32:08.603Z,6.00
2023-03-05T18:33:08.548Z,6.00
2023-03-05T18:34:08.691Z,6.00
2023-03-05T18:35:08.529Z,6.00
2023-03-05T18:36:08.522Z,6.00
2023-03-05T18:37:08.513Z,6.00
2023-03-05T18:38:08.491Z,6.00
2023-03-05T18:39:08.498Z,6.00
2023-03-05T18:40:08.604Z,6.00
2023-03-05T18:41:08.454Z,6.00
2023-03-05T18:42:08.459Z,6.00
2023-03-05T18:43:08.437Z,6.00
2023-03-05T18:44:08.429Z,6.00
2023-03-05T18:45:08.442Z,6.00
2023-03-05T18:46:08.612Z,6.00
2023-03-05T18:47:08.397Z,6.00
2023-03-05T18:48:08.399Z,6.00
2023-03-05T18:49:08.379Z,6.00
2023-03-05T18:50:08.360Z,6.00
2023-03-05T18:51:08.367Z,6.00
2023-03-05T18:52:08.507Z,4.00
2023-03-05T18:53:08.344Z,1.00
2023-03-05T18:54:08.323Z,6.00
2023-03-05T18:55:08.318Z,4.00
2023-03-05T18:56:08.326Z,6.00
2023-03-05T18:57:08.324Z,6.00
2023-03-05T18:58:08.416Z,4.00
2023-03-05T18:59:08.298Z,4.00
2023-03-05T19:00:08.257Z,4.00
2023-03-05T19:01:08.299Z,4.00
2023-03-05T19:02:08.282Z,4.00
2023-03-05T19:03:08.231Z,4.00
2023-03-05T19:04:08.467Z,4.00
2023-03-05T19:05:08.230Z,4.00
2023-03-05T19:06:08.199Z,4.00
2023-03-05T19:07:08.230Z,4.00
2023-03-05T19:08:08.214Z,4.00
2023-03-05T19:09:08.173Z,4.00
2023-03-05T19:10:08.492Z,4.00
2023-03-05T19:11:08.163Z,4.00
2023-03-05T19:12:08.140Z,4.00
2023-03-05T19:13:08.133Z,4.00
2023-03-05T19:14:08.128Z,4.00
2023-03-05T19:15:08.117Z,4.00
2023-03-05T19:16:08.316Z,4.00
2023-03-05T19:17:08.100Z,4.00
2023-03-05T19:18:08.072Z,5.00
2023-03-05T19:19:08.084Z,4.00
2023-03-05T19:20:08.114Z,0.00
2023-03-05T19:21:08.117Z,0.00
2023-03-05T19:22:08.233Z,0.00
2023-03-05T19:23:08.093Z,0.00
2023-03-05T19:24:08.072Z,0.00
2023-03-05T19:25:08.065Z,0.00
2023-03-05T19:26:08.063Z,0.00
2023-03-05T19:27:08.045Z,0.00
2023-03-05T19:28:08.162Z,0.00
2023-03-05T19:29:15.185Z,0.00
2023-03-05T19:30:08.007Z,0.00
2023-03-05T19:31:08.054Z,0.00
2023-03-05T19:32:08.063Z,0.00
2023-03-05T19:33:07.979Z,0.00
2023-03-05T19:34:08.108Z,0.00
2023-03-05T19:35:07.965Z,0.00
2023-03-05T19:36:07.941Z,0.00
2023-03-05T19:37:07.937Z,0.00
2023-03-05T19:38:07.952Z,0.00
2023-03-05T19:39:07.917Z,0.00
2023-03-05T19:40:08.078Z,0.00
2023-03-05T19:41:07.896Z,0.00
2023-03-05T19:42:07.884Z,0.00
2023-03-05T19:43:07.870Z,0.00
2023-03-05T19:44:07.856Z,0.00
2023-03-05T19:45:07.864Z,0.00
2023-03-05T19:46:08.081Z,0.00
2023-03-05T19:47:07.875Z,0.00
2023-03-05T19:48:07.812Z,0.00
2023-03-05T19:49:07.821Z,0.00
2023-03-05T19:50:07.792Z,0.00
2023-03-05T19:51:07.796Z,0.00
2023-03-05T19:52:07.961Z,0.00
2023-03-05T19:53:07.772Z,0.00
2023-03-05T19:54:07.770Z,0.00
2023-03-05T19:55:07.745Z,0.00
2023-03-05T19:56:07.735Z,0.00
2023-03-05T19:57:07.721Z,0.00
2023-03-05T19:58:07.880Z,0.00
2023-03-05T19:59:07.706Z,0.00
2023-03-05T20:00:07.692Z,0.00
2023-03-05T20:01:07.702Z,0.00
2023-03-05T20:02:07.668Z,0.00
2023-03-05T20:03:07.661Z,0.00
2023-03-05T20:04:07.795Z,0.00
2023-03-05T20:05:07.638Z,0.00
2023-03-05T20:06:07.643Z,0.00
2023-03-05T20:07:07.622Z,0.00
2023-03-05T20:08:07.640Z,0.00
2023-03-05T20:09:08.121Z,0.00
2023-03-05T20:10:08.003Z,0.00
2023-03-05T20:11:07.587Z,0.00
2023-03-05T20:12:07.610Z,0.00
2023-03-05T20:13:07.563Z,0.00
2023-03-05T20:14:07.554Z,0.00
2023-03-05T20:15:07.546Z,0.00
2023-03-05T20:16:07.738Z,0.00
2023-03-05T20:17:07.516Z,0.00
2023-03-05T20:18:09.895Z,0.00
2023-03-05T20:19:07.507Z,0.00
2023-03-05T20:20:07.512Z,0.00
2023-03-05T20:21:07.472Z,0.00
2023-03-05T20:22:07.618Z,0.00
2023-03-05T20:23:07.458Z,0.00
2023-03-05T20:24:09.667Z,0.00
2023-03-05T20:25:07.422Z,0.00
2023-03-05T20:26:07.431Z,0.00
2023-03-05T20:27:07.420Z,0.00
2023-03-05T20:28:07.573Z,0.00
2023-03-05T20:29:17.497Z,0.00
2023-03-05T20:30:07.427Z,0.00
2023-03-05T20:31:07.395Z,0.00
2023-03-05T20:32:07.382Z,0.00
2023-03-05T20:33:07.365Z,0.00
2023-03-05T20:34:07.514Z,0.00
2023-03-05T20:35:07.376Z,0.00